createdAt,value
2018-09-04T00:01:36.711Z,19.20
2018-09-04T00:04:06.822Z,19.20
2018-09-04T00:06:41.812Z,19.10
2018-09-04T00:09:16.901Z,19.10
2018-09-04T00:11:51.916Z,19.00
2018-09-04T00:14:27.072Z,19.00
2018-09-04T00:17:02.318Z,19.00
2018-09-04T00:19:37.566Z,19.00
2018-09-04T00:22:12.629Z,19.00
2018-09-04T00:24:48.122Z,18.90
2018-09-04T00:27:23.055Z,18.90
2018-09-04T00:29:57.967Z,18.90
2018-09-04T00:32:33.218Z,18.90
2018-09-04T00:35:08.246Z,18.80
2018-09-04T00:37:43.148Z,18.80
2018-09-04T00:40:18.098Z,18.80
2018-09-04T00:42:53.324Z,18.80
2018-09-04T00:45:28.629Z,18.70
2018-09-04T00:48:03.497Z,18.80
2018-09-04T00:50:38.431Z,18.70
2018-09-04T00:53:13.710Z,18.70
2018-09-04T00:55:49.024Z,18.70
2018-09-04T00:58:18.937Z,18.70
2018-09-04T01:00:54.747Z,18.60
2018-09-04T01:03:29.988Z,18.70
2018-09-04T01:06:05.328Z,18.60
2018-09-04T01:08:40.306Z,18.70
2018-09-04T01:11:15.269Z,18.60
2018-09-04T01:13:50.367Z,18.60
2018-09-04T01:16:28.816Z,18.60
2018-09-04T01:19:03.982Z,18.60
2018-09-04T01:21:39.209Z,18.50
2018-09-04T01:24:14.034Z,18.50
2018-09-04T01:26:49.363Z,18.40
2018-09-04T01:29:24.769Z,18.40
2018-09-04T01:32:01.619Z,18.40
2018-09-04T01:34:36.745Z,18.30
2018-09-04T01:37:11.901Z,18.30
2018-09-04T01:39:47.154Z,18.30
2018-09-04T01:42:22.772Z,18.30
2018-09-04T01:44:58.045Z,18.30
2018-09-04T01:47:33.267Z,18.30
2018-09-04T01:50:08.265Z,18.30
2018-09-04T01:52:43.467Z,18.30
2018-09-04T01:55:18.277Z,18.30
2018-09-04T01:57:54.309Z,18.20
2018-09-04T02:00:29.364Z,18.20
2018-09-04T02:03:04.583Z,18.20
2018-09-04T02:05:39.671Z,18.20
2018-09-04T02:08:14.635Z,18.20
2018-09-04T02:10:49.714Z,18.20
2018-09-04T02:13:24.823Z,18.20
2018-09-04T02:16:00.439Z,18.20
2018-09-04T02:18:35.231Z,18.30
2018-09-04T02:21:10.403Z,18.40
2018-09-04T02:23:45.380Z,18.30
2018-09-04T02:26:20.410Z,18.30
2018-09-04T02:28:55.288Z,18.40
2018-09-04T02:31:30.204Z,18.40
2018-09-04T02:34:05.863Z,18.40
2018-09-04T02:36:40.939Z,18.40
2018-09-04T02:39:15.969Z,18.40
2018-09-04T02:41:51.214Z,18.50
2018-09-04T02:44:26.630Z,18.50
2018-09-04T02:47:01.653Z,18.50
2018-09-04T02:49:36.604Z,18.50
2018-09-04T02:52:11.823Z,18.50
2018-09-04T02:54:46.894Z,18.50
2018-09-04T02:57:22.155Z,18.50
2018-09-04T02:59:57.597Z,18.50
2018-09-04T03:02:32.594Z,18.50
2018-09-04T03:05:08.082Z,18.60
2018-09-04T03:07:43.150Z,18.60
2018-09-04T03:10:18.133Z,18.60
2018-09-04T03:12:53.377Z,18.60
2018-09-04T03:15:29.045Z,18.60
2018-09-04T03:18:05.015Z,18.60
2018-09-04T03:20:40.121Z,18.60
2018-09-04T03:23:18.356Z,18.60
2018-09-04T03:25:53.593Z,18.70
2018-09-04T03:28:28.768Z,18.70
2018-09-04T03:31:03.859Z,18.60
2018-09-04T03:33:38.714Z,18.70
2018-09-04T03:36:14.640Z,18.60
2018-09-04T03:38:49.537Z,18.60
2018-09-04T03:41:24.862Z,18.60
2018-09-04T03:44:00.034Z,18.60
2018-09-04T03:46:35.258Z,18.60
2018-09-04T03:49:10.275Z,18.50
2018-09-04T03:51:45.330Z,18.50
2018-09-04T03:54:20.368Z,18.50
2018-09-04T03:56:55.439Z,18.50
2018-09-04T03:59:30.911Z,18.50
2018-09-04T04:02:06.231Z,18.50
2018-09-04T04:04:41.335Z,18.50
2018-09-04T04:07:16.891Z,18.40
2018-09-04T04:09:52.501Z,18.40
2018-09-04T04:12:27.932Z,18.40
2018-09-04T04:15:02.798Z,18.30
2018-09-04T04:17:38.231Z,18.30
2018-09-04T04:20:13.251Z,18.30
2018-09-04T04:22:48.504Z,18.20
2018-09-04T04:25:23.861Z,18.20
2018-09-04T04:27:59.167Z,18.20
2018-09-04T04:30:34.593Z,18.20
2018-09-04T04:33:09.878Z,18.20
2018-09-04T04:35:44.588Z,18.20
2018-09-04T04:38:20.681Z,18.20
2018-09-04T04:40:55.563Z,18.20
2018-09-04T04:43:30.853Z,18.10
2018-09-04T04:46:12.719Z,18.10
2018-09-04T04:48:48.029Z,18.10
2018-09-04T04:51:23.646Z,18.00
2018-09-04T04:53:58.916Z,18.00
2018-09-04T04:56:35.033Z,18.00
2018-09-04T04:59:11.223Z,18.00
2018-09-04T05:01:46.436Z,18.00
2018-09-04T05:04:22.009Z,18.00
2018-09-04T05:06:57.138Z,18.00
2018-09-04T05:09:32.899Z,18.00
2018-09-04T05:12:08.237Z,18.00
2018-09-04T05:14:43.360Z,18.00
2018-09-04T05:17:19.448Z,18.00
2018-09-04T05:19:54.952Z,18.00
2018-09-04T05:22:30.527Z,18.00
2018-09-04T05:25:06.491Z,18.00
2018-09-04T05:27:41.578Z,18.10
2018-09-04T05:30:16.668Z,18.10
2018-09-04T05:33:00.644Z,18.10
2018-09-04T05:35:41.352Z,18.20
2018-09-04T05:38:16.565Z,18.20
2018-09-04T05:40:51.745Z,18.20
2018-09-04T05:43:30.239Z,18.20
2018-09-04T05:46:11.027Z,18.30
2018-09-04T05:48:46.275Z,18.30
2018-09-04T05:51:21.625Z,18.30
2018-09-04T05:53:57.762Z,18.30
2018-09-04T05:56:32.788Z,18.30
2018-09-04T05:59:08.065Z,18.30
2018-09-04T06:01:43.083Z,18.40
2018-09-04T06:04:18.468Z,18.40
2018-09-04T06:06:53.634Z,18.40
2018-09-04T06:09:28.735Z,18.50
2018-09-04T06:12:04.309Z,18.50
2018-09-04T06:14:39.130Z,18.50
2018-09-04T06:17:14.361Z,18.60
2018-09-04T06:19:50.457Z,18.60
2018-09-04T06:22:26.254Z,18.60
2018-09-04T06:25:01.252Z,18.70
2018-09-04T06:27:37.550Z,18.70
2018-09-04T06:30:13.551Z,18.80
2018-09-04T06:32:48.583Z,18.80
2018-09-04T06:35:23.924Z,18.80
2018-09-04T06:37:59.132Z,18.90
2018-09-04T06:40:34.113Z,18.90
2018-09-04T06:43:10.158Z,19.00
2018-09-04T06:45:44.959Z,19.00
2018-09-04T06:48:20.345Z,19.10
2018-09-04T06:50:55.150Z,19.10
2018-09-04T06:53:30.229Z,19.10
2018-09-04T06:56:05.634Z,19.20
2018-09-04T06:58:40.945Z,19.20
2018-09-04T07:01:16.250Z,19.20
2018-09-04T07:03:51.554Z,19.30
2018-09-04T07:06:26.834Z,19.30
2018-09-04T07:09:02.593Z,19.30
2018-09-04T07:11:38.235Z,19.40
2018-09-04T07:14:13.276Z,19.40
2018-09-04T07:16:48.361Z,19.50
2018-09-04T07:19:23.887Z,19.50
2018-09-04T07:21:59.052Z,19.50
2018-09-04T07:24:34.980Z,19.50
2018-09-04T07:27:10.067Z,19.60
2018-09-04T07:29:45.086Z,19.60
2018-09-04T07:32:20.206Z,19.70
2018-09-04T07:34:55.425Z,19.70
2018-09-04T07:37:30.727Z,19.80
2018-09-04T07:40:06.063Z,19.80
2018-09-04T07:42:41.296Z,19.80
2018-09-04T07:45:16.394Z,19.80
2018-09-04T07:47:51.555Z,19.90
2018-09-04T07:50:26.860Z,20.00
2018-09-04T07:53:02.035Z,20.00
2018-09-04T07:55:36.834Z,20.10
2018-09-04T07:58:11.898Z,20.10
2018-09-04T08:00:47.088Z,20.20
2018-09-04T08:03:21.941Z,20.30
2018-09-04T08:05:57.447Z,20.30
2018-09-04T08:08:32.286Z,20.30
2018-09-04T08:11:07.462Z,20.40
2018-09-04T08:13:42.264Z,20.40
2018-09-04T08:16:17.511Z,20.40
2018-09-04T08:18:52.637Z,20.60
2018-09-04T08:21:27.810Z,20.70
2018-09-04T08:24:03.314Z,20.80
2018-09-04T08:26:38.769Z,21.00
2018-09-04T08:29:14.548Z,21.20
2018-09-04T08:31:49.731Z,21.40
2018-09-04T08:34:24.692Z,21.50
2018-09-04T08:37:00.160Z,21.60
2018-09-04T08:39:35.031Z,21.70
2018-09-04T08:42:10.215Z,21.80
2018-09-04T08:44:45.575Z,21.80
2018-09-04T08:47:21.118Z,21.80
2018-09-04T08:49:57.261Z,21.80
2018-09-04T08:52:32.480Z,21.90
2018-09-04T08:55:08.381Z,21.90
2018-09-04T08:57:44.305Z,21.80
2018-09-04T09:00:19.049Z,21.80
2018-09-04T09:02:54.230Z,21.80
2018-09-04T09:05:29.387Z,21.70
2018-09-04T09:08:05.154Z,21.60
2018-09-04T09:10:40.230Z,21.50
2018-09-04T09:13:15.893Z,21.50
2018-09-04T09:15:51.211Z,21.50
2018-09-04T09:18:29.611Z,21.50
2018-09-04T09:21:04.753Z,21.60
2018-09-04T09:23:39.744Z,21.70
2018-09-04T09:26:14.818Z,21.80
2018-09-04T09:28:50.223Z,21.80
2018-09-04T09:31:26.285Z,21.80
2018-09-04T09:34:06.263Z,21.90
2018-09-04T09:36:41.714Z,21.90
2018-09-04T09:39:17.090Z,21.90
2018-09-04T09:41:52.365Z,21.90
2018-09-04T09:44:27.390Z,21.90
2018-09-04T09:47:03.598Z,21.90
2018-09-04T09:49:38.843Z,21.90
2018-09-04T09:52:14.126Z,22.00
2018-09-04T09:54:49.301Z,22.10
2018-09-04T09:57:24.746Z,22.20
2018-09-04T10:00:00.083Z,22.30
2018-09-04T10:02:41.300Z,22.50
2018-09-04T10:05:16.715Z,22.60
2018-09-04T10:07:52.030Z,22.70
2018-09-04T10:10:27.076Z,22.90
2018-09-04T10:13:02.554Z,23.10
2018-09-04T10:15:38.333Z,23.20
2018-09-04T10:18:13.382Z,23.30
2018-09-04T10:20:49.423Z,23.40
2018-09-04T10:23:24.610Z,23.40
2018-09-04T10:26:00.095Z,23.30
2018-09-04T10:28:35.330Z,23.40
2018-09-04T10:31:10.431Z,23.50
2018-09-04T10:33:45.629Z,23.50
2018-09-04T10:36:20.706Z,23.50
2018-09-04T10:39:01.436Z,23.60
2018-09-04T10:41:36.626Z,23.60
2018-09-04T10:44:11.771Z,23.70
2018-09-04T10:46:46.847Z,23.70
2018-09-04T10:49:21.922Z,23.70
2018-09-04T10:51:56.883Z,23.70
2018-09-04T10:54:33.001Z,23.80
2018-09-04T10:57:07.721Z,23.90
2018-09-04T10:59:42.791Z,24.00
2018-09-04T11:02:19.010Z,24.00
2018-09-04T11:04:55.396Z,24.10
2018-09-04T11:07:30.475Z,24.10
2018-09-04T11:10:05.487Z,24.30
2018-09-04T11:12:41.607Z,24.30
2018-09-04T11:15:17.277Z,24.20
2018-09-04T11:17:52.531Z,24.10
2018-09-04T11:20:27.787Z,24.10
2018-09-04T11:23:02.848Z,24.00
2018-09-04T11:25:38.051Z,24.00
2018-09-04T11:28:13.273Z,24.00
2018-09-04T11:30:48.382Z,24.10
2018-09-04T11:33:23.863Z,24.30
2018-09-04T11:35:59.048Z,24.30
2018-09-04T11:38:34.634Z,24.40
2018-09-04T11:41:09.723Z,24.60
2018-09-04T11:43:44.943Z,24.80
2018-09-04T11:46:19.940Z,25.10
2018-09-04T11:48:54.949Z,25.20
2018-09-04T11:51:30.055Z,25.20
2018-09-04T11:54:05.443Z,25.30
2018-09-04T11:56:41.182Z,25.40
2018-09-04T11:59:16.458Z,25.40
2018-09-04T12:01:54.554Z,25.50
2018-09-04T12:04:30.004Z,25.40
2018-09-04T12:07:05.133Z,25.50
2018-09-04T12:09:40.332Z,25.70
2018-09-04T12:12:20.989Z,25.70
2018-09-04T12:14:56.097Z,25.70
2018-09-04T12:17:31.226Z,25.90
2018-09-04T12:20:47.207Z,25.90
2018-09-04T12:23:22.243Z,26.00
2018-09-04T12:26:00.261Z,26.00
2018-09-04T12:28:36.142Z,26.20
2018-09-04T12:31:11.376Z,26.30
2018-09-04T12:33:46.496Z,26.40
2018-09-04T12:36:21.967Z,26.50
2018-09-04T12:38:57.169Z,26.60
2018-09-04T12:41:32.356Z,26.70
2018-09-04T12:44:07.637Z,26.70
2018-09-04T12:46:42.613Z,26.70
2018-09-04T12:49:17.912Z,26.70
2018-09-04T12:51:52.957Z,26.70
2018-09-04T12:54:28.164Z,26.90
2018-09-04T12:57:03.478Z,26.90
2018-09-04T12:59:38.717Z,27.00
2018-09-04T13:02:13.952Z,27.20
2018-09-04T13:04:49.036Z,27.00
2018-09-04T13:07:24.366Z,26.90
2018-09-04T13:09:59.341Z,26.90
2018-09-04T13:12:34.751Z,26.90
2018-09-04T13:15:10.354Z,26.90
2018-09-04T13:17:45.358Z,27.00
2018-09-04T13:20:20.115Z,27.20
2018-09-04T13:22:55.817Z,27.40
2018-09-04T13:25:30.981Z,27.60
2018-09-04T13:28:07.145Z,27.70
2018-09-04T13:30:42.609Z,27.90
2018-09-04T13:33:17.779Z,27.80
2018-09-04T13:35:57.059Z,27.80
2018-09-04T13:38:32.349Z,27.80
2018-09-04T13:41:08.667Z,27.60
2018-09-04T13:43:44.106Z,27.40
2018-09-04T13:46:19.291Z,27.30
2018-09-04T13:48:54.215Z,27.30
2018-09-04T13:51:29.309Z,27.30
2018-09-04T13:56:38.920Z,27.20
2018-09-04T13:59:14.257Z,27.00
2018-09-04T14:01:49.700Z,26.90
2018-09-04T14:04:24.625Z,26.90
2018-09-04T14:07:00.610Z,26.80
2018-09-04T14:09:35.515Z,26.90
2018-09-04T14:12:10.685Z,27.10
2018-09-04T14:14:45.899Z,27.20
2018-09-04T14:17:21.535Z,27.30
2018-09-04T14:19:56.590Z,27.20
2018-09-04T14:22:32.122Z,27.20
2018-09-04T14:25:07.441Z,27.20
2018-09-04T14:27:42.461Z,27.20
2018-09-04T14:30:17.695Z,27.30
2018-09-04T14:32:52.852Z,27.40
2018-09-04T14:35:28.436Z,27.50
2018-09-04T14:38:03.335Z,27.60
2018-09-04T14:40:38.389Z,27.70
2018-09-04T14:43:13.428Z,28.00
2018-09-04T14:45:48.756Z,28.00
2018-09-04T14:48:25.035Z,27.90
2018-09-04T14:51:00.012Z,27.90
2018-09-04T14:53:34.923Z,28.00
2018-09-04T14:56:09.866Z,28.10
2018-09-04T14:58:44.997Z,28.10
2018-09-04T15:01:20.241Z,28.00
2018-09-04T15:03:55.396Z,28.00
2018-09-04T15:06:30.686Z,28.00
2018-09-04T15:09:00.281Z,28.10
2018-09-04T15:11:36.641Z,28.20
2018-09-04T15:14:11.726Z,28.40
2018-09-04T15:16:44.743Z,28.30
2018-09-04T15:19:20.123Z,28.00
2018-09-04T15:21:55.252Z,27.70
2018-09-04T15:24:30.793Z,27.60
2018-09-04T15:27:06.142Z,27.40
2018-09-04T15:29:41.977Z,27.00
2018-09-04T15:32:19.563Z,26.70
2018-09-04T15:34:54.490Z,26.20
2018-09-04T15:37:31.999Z,25.00
2018-09-04T15:40:01.586Z,23.90
2018-09-04T15:42:31.627Z,23.20
2018-09-04T15:45:01.538Z,22.60
2018-09-04T15:47:31.102Z,22.10
2018-09-04T15:50:01.216Z,21.70
2018-09-04T15:52:31.262Z,21.30
2018-09-04T15:55:01.006Z,20.80
2018-09-04T15:57:30.392Z,20.50
2018-09-04T16:00:00.924Z,20.40
2018-09-04T16:02:36.234Z,20.30
2018-09-04T16:05:11.992Z,20.20
2018-09-04T16:07:47.389Z,20.10
2018-09-04T16:10:22.510Z,20.10
2018-09-04T16:12:58.170Z,20.10
2018-09-04T16:15:33.113Z,20.10
2018-09-04T16:18:08.643Z,20.10
2018-09-04T16:20:43.525Z,20.10
2018-09-04T16:23:19.915Z,20.10
2018-09-04T16:25:55.706Z,20.00
2018-09-04T16:28:31.106Z,20.00
2018-09-04T16:31:06.540Z,20.00
2018-09-04T16:33:42.232Z,20.00
2018-09-04T16:36:17.677Z,19.80
2018-09-04T16:38:52.868Z,19.70
2018-09-04T16:41:27.859Z,19.70
2018-09-04T16:44:04.526Z,19.70
2018-09-04T16:46:39.959Z,19.80
2018-09-04T16:49:15.361Z,19.80
2018-09-04T16:51:51.455Z,19.80
2018-09-04T16:54:27.023Z,19.80
2018-09-04T16:57:02.206Z,19.70
2018-09-04T16:59:37.505Z,19.70
2018-09-04T17:02:12.722Z,19.60
2018-09-04T17:04:48.677Z,19.60
2018-09-04T17:07:23.788Z,19.60
2018-09-04T17:09:58.898Z,19.70
2018-09-04T17:12:34.184Z,19.70
2018-09-04T17:15:10.705Z,19.70
2018-09-04T17:17:45.851Z,19.70
2018-09-04T17:20:21.214Z,19.70
2018-09-04T17:22:56.255Z,19.60
2018-09-04T17:25:25.499Z,19.50
2018-09-04T17:28:00.852Z,19.40
2018-09-04T17:30:35.984Z,19.30
2018-09-04T17:33:10.933Z,19.30
2018-09-04T17:35:46.654Z,19.40
2018-09-04T17:38:22.064Z,19.30
2018-09-04T17:40:57.893Z,19.40
2018-09-04T17:43:33.004Z,19.40
2018-09-04T17:46:08.689Z,19.40
2018-09-04T17:48:44.267Z,19.50
2018-09-04T17:51:19.395Z,19.50
2018-09-04T17:53:54.897Z,19.40
2018-09-04T17:56:30.863Z,19.40
2018-09-04T17:59:06.543Z,19.40
2018-09-04T18:01:41.581Z,19.40
2018-09-04T18:04:17.341Z,19.40
2018-09-04T18:06:52.749Z,19.40
2018-09-04T18:09:27.804Z,19.30
2018-09-04T18:12:03.293Z,19.30
2018-09-04T18:14:38.778Z,19.30
2018-09-04T18:17:14.220Z,19.30
2018-09-04T18:19:49.453Z,19.40
2018-09-04T18:22:25.443Z,19.40
2018-09-04T18:25:01.094Z,19.40
2018-09-04T18:27:41.376Z,19.40
2018-09-04T18:30:17.078Z,19.40
2018-09-04T18:32:53.110Z,19.30
2018-09-04T18:35:28.111Z,19.30
2018-09-04T18:38:03.122Z,19.30
2018-09-04T18:40:38.437Z,19.30
2018-09-04T18:43:13.592Z,19.30
2018-09-04T18:45:50.497Z,19.20
2018-09-04T18:48:26.184Z,19.10
2018-09-04T18:51:01.409Z,19.10
2018-09-04T18:53:37.074Z,19.10
2018-09-04T18:56:12.369Z,19.10
2018-09-04T18:58:42.029Z,19.00
2018-09-04T19:01:11.861Z,19.00
2018-09-04T19:03:42.380Z,18.90
2018-09-04T19:06:12.232Z,18.90
2018-09-04T19:08:42.238Z,18.90
2018-09-04T19:11:12.406Z,18.90
2018-09-04T19:13:42.551Z,18.90
2018-09-04T19:16:12.179Z,18.90
2018-09-04T19:18:41.915Z,18.90
2018-09-04T19:21:11.449Z,19.00
2018-09-04T19:23:40.959Z,18.90
2018-09-04T19:26:15.680Z,18.90
2018-09-04T19:28:50.759Z,19.00
2018-09-04T19:31:25.808Z,19.00
2018-09-04T19:34:01.860Z,19.00
2018-09-04T19:36:37.201Z,19.00
2018-09-04T19:39:12.493Z,19.00
2018-09-04T19:41:47.852Z,19.00
2018-09-04T19:44:23.663Z,19.00
2018-09-04T19:46:59.064Z,19.00
2018-09-04T19:49:34.056Z,18.90
2018-09-04T19:52:09.301Z,19.00
2018-09-04T19:54:44.722Z,19.00
2018-09-04T19:57:20.050Z,19.00
2018-09-04T19:59:55.572Z,19.10
2018-09-04T20:02:25.645Z,19.10
2018-09-04T20:05:01.514Z,19.00
2018-09-04T20:07:40.538Z,19.00
2018-09-04T20:10:16.357Z,19.00
2018-09-04T20:12:52.624Z,19.00
2018-09-04T20:15:27.991Z,19.10
2018-09-04T20:18:03.902Z,19.10
2018-09-04T20:20:39.095Z,19.10
2018-09-04T20:23:14.142Z,19.10
2018-09-04T20:25:49.510Z,19.10
2018-09-04T20:28:31.228Z,19.10
2018-09-04T20:31:06.645Z,19.20
2018-09-04T20:33:42.173Z,19.20
2018-09-04T20:36:16.910Z,19.20
2018-09-04T20:38:52.173Z,19.20
2018-09-04T20:41:27.146Z,19.20
2018-09-04T20:44:02.087Z,19.20
2018-09-04T20:46:37.058Z,19.30
2018-09-04T20:49:12.676Z,19.30
2018-09-04T20:51:48.518Z,19.30
2018-09-04T20:54:24.192Z,19.30
2018-09-04T20:57:38.837Z,19.20
2018-09-04T21:00:26.528Z,19.20
2018-09-04T21:03:12.687Z,19.30
2018-09-04T21:05:58.969Z,19.30
2018-09-04T21:09:17.369Z,19.30
2018-09-04T21:11:52.541Z,19.30
2018-09-04T21:14:27.864Z,19.30
2018-09-04T21:17:03.219Z,19.30
2018-09-04T21:19:38.263Z,19.30
2018-09-04T21:22:13.531Z,19.30
2018-09-04T21:24:49.056Z,19.30
2018-09-04T21:27:24.448Z,19.20
2018-09-04T21:29:59.529Z,19.30
2018-09-04T21:32:34.320Z,19.20
2018-09-04T21:35:10.174Z,19.20
2018-09-04T21:37:45.856Z,19.20
2018-09-04T21:40:20.554Z,19.20
2018-09-04T21:42:55.838Z,19.20
2018-09-04T21:45:30.850Z,19.20
2018-09-04T21:48:06.012Z,19.10
2018-09-04T21:50:41.232Z,19.10
2018-09-04T21:53:17.291Z,19.10
2018-09-04T21:55:52.322Z,19.10
2018-09-04T21:58:27.553Z,19.10
2018-09-04T22:01:02.869Z,19.10
2018-09-04T22:03:38.349Z,19.10
2018-09-04T22:06:13.717Z,19.10
2018-09-04T22:08:48.745Z,19.10
2018-09-04T22:11:23.727Z,19.10
2018-09-04T22:13:58.506Z,19.10
2018-09-04T22:16:33.758Z,19.10
2018-09-04T22:19:09.819Z,19.10
2018-09-04T22:21:45.029Z,19.10
2018-09-04T22:24:20.093Z,19.10
2018-09-04T22:26:55.235Z,19.10
2018-09-04T22:29:30.133Z,19.10
2018-09-04T22:32:05.261Z,19.10
2018-09-04T22:34:40.998Z,19.10
2018-09-04T22:37:16.342Z,19.10
2018-09-04T22:39:51.545Z,19.10
2018-09-04T22:42:26.390Z,19.10
2018-09-04T22:45:01.563Z,19.10
2018-09-04T22:47:36.598Z,19.10
2018-09-04T22:50:17.002Z,19.10
2018-09-04T22:52:52.226Z,19.10
2018-09-04T22:55:27.223Z,19.10
2018-09-04T22:58:02.903Z,19.10
2018-09-04T23:00:37.949Z,19.10
2018-09-04T23:03:12.891Z,19.10
2018-09-04T23:05:47.877Z,19.10
2018-09-04T23:08:22.867Z,19.00
2018-09-04T23:10:57.984Z,19.00
2018-09-04T23:13:32.607Z,19.00
2018-09-04T23:16:08.285Z,19.00
2018-09-04T23:18:43.426Z,19.00
2018-09-04T23:21:19.075Z,19.00
2018-09-04T23:23:54.437Z,18.90
2018-09-04T23:26:29.566Z,18.90
2018-09-04T23:29:05.377Z,18.90
2018-09-04T23:31:40.354Z,18.80
2018-09-04T23:34:15.835Z,18.80
2018-09-04T23:36:50.805Z,18.80
2018-09-04T23:39:25.835Z,18.70
2018-09-04T23:42:00.649Z,18.70
2018-09-04T23:44:36.074Z,18.70
2018-09-04T23:47:10.984Z,18.70
2018-09-04T23:49:46.288Z,18.60
2018-09-04T23:52:21.252Z,18.60
2018-09-04T23:54:56.232Z,18.60
2018-09-04T23:57:31.421Z,18.50
